createdAt,value
2023-06-10T00:01:20.877Z,100692.60
2023-06-10T00:06:25.725Z,100695.20
2023-06-10T00:11:29.015Z,100692.40
2023-06-10T00:16:32.326Z,100688.00
2023-06-10T00:21:38.797Z,100690.40
2023-06-10T00:26:43.224Z,100688.00
2023-06-10T00:31:47.442Z,100695.60
2023-06-10T00:36:50.816Z,100692.00
2023-06-10T00:41:54.186Z,100696.80
2023-06-10T00:46:57.729Z,100706.00
2023-06-10T00:52:01.008Z,100704.60
2023-06-10T00:57:05.671Z,100708.00
2023-06-10T01:02:10.617Z,100710.60
2023-06-10T01:07:30.107Z,100713.40
2023-06-10T01:12:50.404Z,100718.00
2023-06-10T01:17:59.496Z,100720.60
2023-06-10T01:23:04.472Z,100712.60
2023-06-10T01:28:28.609Z,100711.80
2023-06-10T01:33:37.029Z,100717.00
2023-06-10T01:38:44.877Z,100728.00
2023-06-10T01:43:49.211Z,100727.60
2023-06-10T01:48:52.453Z,100730.80
2023-06-10T01:53:55.722Z,100727.00
2023-06-10T01:59:00.521Z,100734.80
2023-06-10T02:04:04.145Z,100743.20
2023-06-10T02:09:07.620Z,100751.40
2023-06-10T02:14:11.111Z,100763.20
2023-06-10T02:19:15.576Z,100766.60
2023-06-10T02:24:19.299Z,100768.40
2023-06-10T02:29:22.665Z,100776.40
2023-06-10T02:34:26.227Z,100773.60
2023-06-10T02:39:29.911Z,100772.80
2023-06-10T02:44:33.240Z,100775.80
2023-06-10T02:49:37.082Z,100776.80
2023-06-10T02:54:40.973Z,100777.40
2023-06-10T02:59:44.690Z,100776.20
2023-06-10T03:04:48.922Z,100776.80
2023-06-10T03:09:52.268Z,100779.60
2023-06-10T03:14:55.455Z,100786.00
2023-06-10T03:19:58.767Z,100790.00
2023-06-10T03:25:02.176Z,100799.80
2023-06-10T03:30:06.616Z,100801.80
2023-06-10T03:35:10.316Z,100802.40
2023-06-10T03:40:14.049Z,100814.20
2023-06-10T03:45:17.724Z,100813.80
2023-06-10T03:50:21.189Z,100818.80
2023-06-10T03:55:24.820Z,100817.60
2023-06-10T04:00:28.008Z,100820.80
2023-06-10T04:05:31.591Z,100819.60
2023-06-10T04:10:34.963Z,100816.60
2023-06-10T04:15:38.144Z,100819.40
2023-06-10T04:20:41.484Z,100821.00
2023-06-10T04:25:44.782Z,100822.20
2023-06-10T04:30:48.525Z,100823.80
2023-06-10T04:35:52.026Z,100829.40
2023-06-10T04:40:55.319Z,100836.00
2023-06-10T04:45:58.927Z,100827.40
2023-06-10T04:51:02.247Z,100822.60
2023-06-10T04:56:06.092Z,100828.60
2023-06-10T05:01:09.792Z,100829.20
2023-06-10T05:06:12.931Z,100846.20
2023-06-10T05:11:16.204Z,100845.80
2023-06-10T05:16:19.660Z,100851.40
2023-06-10T05:21:23.136Z,100859.60
2023-06-10T05:26:26.674Z,100867.40
2023-06-10T05:31:30.014Z,100869.80
2023-06-10T05:36:33.906Z,100866.60
2023-06-10T05:41:37.812Z,100869.60
2023-06-10T05:46:41.129Z,100872.00
2023-06-10T05:51:44.497Z,100871.20
2023-06-10T05:56:47.872Z,100878.60
2023-06-10T06:01:51.587Z,100878.60
2023-06-10T06:06:54.900Z,100885.00
2023-06-10T06:11:58.295Z,100877.00
2023-06-10T06:17:01.644Z,100876.60
2023-06-10T06:22:05.430Z,100872.00
2023-06-10T06:27:08.750Z,100876.00
2023-06-10T06:32:11.951Z,100880.00
2023-06-10T06:37:15.781Z,100877.00
2023-06-10T06:42:19.710Z,100875.00
2023-06-10T06:47:23.213Z,100877.00
2023-06-10T06:52:28.638Z,100873.40
2023-06-10T06:57:36.734Z,100876.80
2023-06-10T07:02:40.657Z,100879.40
2023-06-10T07:07:44.763Z,100892.80
2023-06-10T07:12:48.008Z,100895.20
2023-06-10T07:17:51.850Z,100895.20
2023-06-10T07:22:55.404Z,100899.60
2023-06-10T07:27:59.065Z,100897.60
2023-06-10T07:33:04.017Z,100905.80
2023-06-10T07:38:07.418Z,100905.60
2023-06-10T07:43:10.798Z,100914.40
2023-06-10T07:48:14.448Z,100913.20
2023-06-10T07:53:17.737Z,100917.60
2023-06-10T07:58:21.293Z,100918.60
2023-06-10T08:03:24.755Z,100920.20
2023-06-10T08:08:28.269Z,100914.80
2023-06-10T08:13:31.508Z,100930.40
2023-06-10T08:18:35.430Z,100931.40
2023-06-10T08:23:38.763Z,100932.40
2023-06-10T08:28:42.281Z,100930.80
2023-06-10T08:33:45.864Z,100935.00
2023-06-10T08:38:49.199Z,100935.60
2023-06-10T08:44:29.164Z,100926.00
2023-06-10T08:49:37.982Z,100941.00
2023-06-10T08:54:45.035Z,100939.40
2023-06-10T08:59:49.582Z,100950.20
2023-06-10T09:04:53.445Z,100939.80
2023-06-10T09:09:57.637Z,100940.20
2023-06-10T09:15:03.581Z,100935.60
2023-06-10T09:20:11.061Z,100931.00
2023-06-10T09:25:15.214Z,100937.80
2023-06-10T09:30:35.475Z,100938.40
2023-06-10T09:35:47.049Z,100932.00
2023-06-10T09:40:55.122Z,100940.00
2023-06-10T09:45:58.702Z,100943.60
2023-06-10T09:51:02.181Z,100943.00
2023-06-10T09:56:08.783Z,100948.40
2023-06-10T10:01:16.253Z,100948.40
2023-06-10T10:06:22.112Z,100943.80
2023-06-10T10:11:27.503Z,100937.60
2023-06-10T10:16:40.375Z,100943.40
2023-06-10T10:21:54.223Z,100927.80
2023-06-10T10:27:00.528Z,100936.20
2023-06-10T10:32:06.353Z,100925.40
2023-06-10T10:37:09.819Z,100925.80
2023-06-10T10:42:15.136Z,100923.40
2023-06-10T10:47:22.547Z,100932.80
2023-06-10T10:52:26.964Z,100926.80
2023-06-10T10:57:31.423Z,100926.60
2023-06-10T11:02:47.921Z,100925.80
2023-06-10T11:07:59.316Z,100914.80
2023-06-10T11:13:10.821Z,100917.20
2023-06-10T11:18:15.474Z,100921.80
2023-06-10T11:23:32.871Z,100917.60
2023-06-10T11:28:36.316Z,100912.60
2023-06-10T11:33:41.125Z,100925.20
2023-06-10T11:38:45.501Z,100915.40
2023-06-10T11:43:48.906Z,100923.00
2023-06-10T11:48:59.313Z,100919.20
2023-06-10T11:54:03.296Z,100917.40
2023-06-10T11:59:08.975Z,100937.00
2023-06-10T12:04:17.745Z,100922.80
2023-06-10T12:09:27.992Z,100919.40
2023-06-10T12:15:00.025Z,100924.60
2023-06-10T12:20:29.922Z,100920.00
2023-06-10T12:25:33.154Z,100918.20
2023-06-10T12:30:36.761Z,100912.40
2023-06-10T12:35:52.691Z,100914.80
2023-06-10T12:41:02.761Z,100911.80
2023-06-10T12:46:15.328Z,100906.60
2023-06-10T12:51:19.945Z,100915.20
2023-06-10T12:56:23.604Z,100908.80
2023-06-10T13:01:28.512Z,100906.40
2023-06-10T13:06:33.709Z,100918.60
2023-06-10T13:11:38.077Z,100915.40
2023-06-10T13:16:41.853Z,100901.80
2023-06-10T13:21:45.371Z,100895.60
2023-06-10T13:26:49.156Z,100897.20
2023-06-10T13:31:52.897Z,100892.20
2023-06-10T13:36:56.273Z,100884.60
2023-06-10T13:42:00.182Z,100887.20
2023-06-10T13:47:04.672Z,100891.40
2023-06-10T13:52:22.702Z,100894.60
2023-06-10T13:57:26.047Z,100892.20
2023-06-10T14:02:29.558Z,100896.60
2023-06-10T14:07:33.164Z,100894.80
2023-06-10T14:12:36.943Z,100899.20
2023-06-10T14:17:40.944Z,100879.40
2023-06-10T14:22:44.385Z,100889.60
2023-06-10T14:27:48.510Z,100889.80
2023-06-10T14:32:51.749Z,100886.40
2023-06-10T14:37:55.122Z,100873.00
2023-06-10T14:42:58.434Z,100882.00
2023-06-10T14:48:01.814Z,100875.80
2023-06-10T14:53:05.262Z,100875.40
2023-06-10T14:58:08.505Z,100884.20
2023-06-10T15:03:11.958Z,100877.60
2023-06-10T15:08:16.134Z,100880.00
2023-06-10T15:13:19.538Z,100880.20
2023-06-10T15:18:22.776Z,100876.40
2023-06-10T15:23:26.164Z,100883.80
2023-06-10T15:28:29.470Z,100877.20
2023-06-10T15:33:32.804Z,100873.20
2023-06-10T15:38:36.209Z,100877.80
2023-06-10T15:43:39.631Z,100879.60
2023-06-10T15:48:42.722Z,100876.60
2023-06-10T15:53:47.268Z,100880.40
2023-06-10T15:58:50.486Z,100895.00
2023-06-10T16:03:54.053Z,100891.40
2023-06-10T16:08:58.453Z,100898.00
2023-06-10T16:14:01.742Z,100900.60
2023-06-10T16:19:05.058Z,100898.00
2023-06-10T16:24:09.797Z,100903.20
2023-06-10T16:29:14.129Z,100906.00
2023-06-10T16:34:18.208Z,100904.80
2023-06-10T16:39:21.674Z,100909.80
2023-06-10T16:44:25.004Z,100908.20
2023-06-10T16:49:28.282Z,100909.40
2023-06-10T16:54:31.805Z,100910.60
2023-06-10T16:59:35.356Z,100919.80
2023-06-10T17:04:38.730Z,100921.60
2023-06-10T17:09:42.056Z,100927.60
2023-06-10T17:14:46.078Z,100930.00
2023-06-10T17:19:51.185Z,100935.60
2023-06-10T17:24:54.956Z,100931.60
2023-06-10T17:29:58.259Z,100942.80
2023-06-10T17:35:01.584Z,100954.60
2023-06-10T17:40:06.120Z,100957.20
2023-06-10T17:45:10.419Z,100953.60
2023-06-10T17:50:15.740Z,100956.40
2023-06-10T17:55:20.659Z,100963.80
2023-06-10T18:00:25.090Z,100962.00
2023-06-10T18:05:28.802Z,100973.60
2023-06-10T18:10:32.142Z,100973.00
2023-06-10T18:15:37.743Z,100979.80
2023-06-10T18:20:41.399Z,100986.20
2023-06-10T18:25:44.813Z,100987.00
2023-06-10T18:30:48.231Z,100994.60
2023-06-10T18:35:51.871Z,100997.00
2023-06-10T18:40:55.160Z,100997.20
2023-06-10T18:45:59.682Z,101011.20
2023-06-10T18:51:03.024Z,101023.20
2023-06-10T18:56:06.442Z,101030.80
2023-06-10T19:01:10.299Z,101032.80
2023-06-10T19:06:13.784Z,101043.00
2023-06-10T19:11:17.813Z,101045.00
2023-06-10T19:16:21.565Z,101056.00
2023-06-10T19:21:25.133Z,101059.60
2023-06-10T19:26:28.487Z,101063.40
2023-06-10T19:31:31.994Z,101068.00
2023-06-10T19:36:35.798Z,101071.40
2023-06-10T19:41:40.065Z,101075.20
2023-06-10T19:46:43.568Z,101079.80
2023-06-10T19:51:49.309Z,101090.80
2023-06-10T19:56:52.641Z,101092.80
2023-06-10T20:01:56.450Z,101094.60
2023-06-10T20:07:02.010Z,101106.20
2023-06-10T20:12:06.749Z,101104.80
2023-06-10T20:17:10.055Z,101108.80
2023-06-10T20:22:13.293Z,101111.80
2023-06-10T20:27:17.128Z,101118.60
2023-06-10T20:32:21.657Z,101121.80
2023-06-10T20:37:26.063Z,101131.20
2023-06-10T20:42:29.553Z,101124.20
2023-06-10T20:47:34.203Z,101129.20
2023-06-10T20:52:37.980Z,101130.20
2023-06-10T20:57:41.885Z,101134.40
2023-06-10T21:02:45.096Z,101135.80
2023-06-10T21:07:48.921Z,101136.20
2023-06-10T21:12:52.211Z,101131.80
2023-06-10T21:17:55.703Z,101134.40
2023-06-10T21:22:59.282Z,101136.00
2023-06-10T21:28:03.063Z,101139.60
2023-06-10T21:33:06.676Z,101144.60
2023-06-10T21:38:10.116Z,101150.80
2023-06-10T21:43:13.433Z,101151.60
2023-06-10T21:48:16.980Z,101152.80
2023-06-10T21:53:20.253Z,101155.00
2023-06-10T21:58:23.779Z,101160.20
2023-06-10T22:03:27.932Z,101165.00
2023-06-10T22:08:31.650Z,101164.60
2023-06-10T22:13:34.935Z,101162.80
2023-06-10T22:18:38.024Z,101164.40
2023-06-10T22:23:41.376Z,101164.60
2023-06-10T22:28:44.746Z,101163.40
2023-06-10T22:33:48.083Z,101166.00
2023-06-10T22:38:51.504Z,101162.00
2023-06-10T22:43:55.609Z,101166.40
2023-06-10T22:48:59.107Z,101163.00
2023-06-10T22:54:02.785Z,101162.20
2023-06-10T22:59:06.285Z,101156.80
2023-06-10T23:04:09.650Z,101156.60
2023-06-10T23:09:14.555Z,101161.00
2023-06-10T23:14:17.828Z,101161.00
2023-06-10T23:19:22.919Z,101161.80
2023-06-10T23:24:30.591Z,101160.20
2023-06-10T23:29:37.240Z,101156.00
2023-06-10T23:34:45.415Z,101155.60
2023-06-10T23:39:49.638Z,101160.20
2023-06-10T23:44:53.801Z,101164.00
2023-06-10T23:49:56.983Z,101160.00
2023-06-10T23:55:00.420Z,101161.60
